Time;durP1;ratioP1;P1;durP2;ratioP2;P2;SDS_P1;SDS_P2;PMS_P1;PMS_P2;Temp;Humidity;BMP_temperature;BMP_pressure;BME280_temperature;BME280_humidity;BME280_pressure;Samples;Min_cycle;Max_cycle;Signal;HPM_P1;HPM_P2
2022/08/13 00:00:58;;;;;;;9.10;5.60;;;;;;;21.27;57.96;96773.06;6160770;22;20190;-79
2022/08/13 00:03:28;;;;;;;8.33;6.10;;;;;;;20.77;58.40;96703.97;6136713;22;20235;-79
2022/08/13 00:06:24;;;;;;;6.60;5.90;;;;;;;20.41;58.25;96658.16;6164339;22;20159;-78
2022/08/13 00:08:56;;;;;;;7.53;6.30;;;;;;;20.80;58.39;96719.44;6161375;22;20352;-77
2022/08/13 00:14:37;;;;;;;7.20;6.03;;;;;;;20.24;57.71;96624.66;6160255;22;20228;-78
2022/08/13 00:17:12;;;;;;;7.73;6.03;;;;;;;20.25;57.50;96611.38;6136107;22;20493;-78
2022/08/13 00:19:44;;;;;;;11.63;7.70;;;;;;;20.67;57.77;96693.44;6135965;22;20436;-78
2022/08/13 00:22:25;;;;;;;9.47;6.63;;;;;;;20.60;57.85;96673.91;6137848;22;20233;-78
2022/08/13 00:24:58;;;;;;;7.43;6.67;;;;;;;21.03;57.72;96734.84;6136486;22;20229;-78
2022/08/13 00:27:27;;;;;;;8.50;7.13;;;;;;;20.48;57.35;96627.69;6137334;22;20166;-78
2022/08/13 00:30:16;;;;;;;10.27;7.20;;;;;;;20.68;56.87;96624.03;6139468;22;20371;-79
2022/08/13 00:33:02;;;;;;;8.63;6.80;;;;;;;20.60;56.71;96608.13;6139379;22;20312;-77
2022/08/13 00:35:35;;;;;;;9.60;7.77;;;;;;;21.43;56.38;96705.59;6160952;22;20227;-79
2022/08/13 00:38:12;;;;;;;10.73;7.00;;;;;;;21.79;55.52;96710.03;6161250;22;20231;-78
2022/08/13 00:40:49;;;;;;;10.50;7.67;;;;;;;21.31;54.65;96616.38;6135892;22;20160;-79
2022/08/13 00:43:25;;;;;;;9.03;7.57;;;;;;;21.54;54.43;96629.00;6136997;22;20173;-78
2022/08/13 00:45:54;;;;;;;10.13;7.93;;;;;;;21.88;54.68;96668.78;6136609;22;20235;-78
2022/08/13 00:51:25;;;;;;;11.73;7.97;;;;;;;22.17;53.70;96701.09;6146490;22;20243;-79
2022/08/13 00:54:16;;;;;;;9.93;7.70;;;;;;;21.94;53.98;96670.00;6180603;22;20161;-77
2022/08/13 00:56:44;;;;;;;8.33;7.53;;;;;;;22.48;54.52;96765.69;6159885;22;20208;-77
2022/08/13 00:59:14;;;;;;;8.50;7.27;;;;;;;22.42;55.10;96768.94;6135586;22;20161;-78
2022/08/13 01:01:45;;;;;;;9.90;7.00;;;;;;;21.66;54.85;96677.06;6135594;22;20196;-80
2022/08/13 01:04:21;;;;;;;11.83;7.57;;;;;;;21.83;55.43;96713.22;6136519;22;20166;-77
2022/08/13 01:06:58;;;;;;;10.90;8.40;;;;;;;21.48;56.73;96703.38;6159688;22;20396;-79
2022/08/13 01:09:30;;;;;;;8.97;7.63;;;;;;;20.86;56.48;96588.09;6160639;22;20462;-78
2022/08/13 01:12:21;;;;;;;11.03;7.57;;;;;;;21.75;55.73;96731.53;6138576;22;20431;-75
2022/08/13 01:14:57;;;;;;;8.37;7.50;;;;;;;21.38;56.40;96664.84;6161758;22;20372;-75
2022/08/13 01:17:30;;;;;;;9.53;7.83;;;;;;;22.02;56.10;96757.94;6161229;22;20199;-75
2022/08/13 01:20:21;;;;;;;9.30;7.67;;;;;;;21.44;56.19;96659.00;6160075;22;20160;-77
2022/08/13 01:23:04;;;;;;;10.17;8.23;;;;;;;21.39;56.13;96682.34;6138060;22;20184;-76
2022/08/13 01:25:32;;;;;;;10.90;8.80;;;;;;;21.03;58.05;96718.22;6160104;22;20167;-74
2022/08/13 01:28:19;;;;;;;9.90;7.50;;;;;;;21.03;58.66;96755.91;6165306;22;20178;-75
2022/08/13 01:30:50;;;;;;;10.67;8.60;;;;;;;20.60;58.90;96694.13;6134758;22;20174;-75
2022/08/13 01:33:18;;;;;;;8.67;7.77;;;;;;;19.37;60.35;96581.66;6161012;22;20192;-75
2022/08/13 01:35:46;;;;;;;10.47;8.43;;;;;;;19.45;60.76;96600.19;6159472;22;20457;-76
2022/08/13 01:38:22;;;;;;;12.10;8.43;;;;;;;19.57;60.61;96611.44;6137287;22;20163;-76
2022/08/13 01:40:54;;;;;;;8.73;7.70;;;;;;;19.48;60.02;96591.22;6161036;22;20159;-76
2022/08/13 01:43:28;;;;;;;7.50;6.50;;;;;;;19.58;60.22;96609.66;6136650;22;20205;-75
2022/08/13 01:45:57;;;;;;;8.47;7.03;;;;;;;19.34;60.69;96597.72;6159985;22;20163;-75
2022/08/13 01:51:32;;;;;;;8.60;7.17;;;;;;;19.84;59.62;96647.59;6160736;22;20240;-75
2022/08/13 01:54:11;;;;;;;7.80;6.60;;;;;;;19.49;59.68;96554.31;6136248;22;20225;-75
2022/08/13 01:57:01;;;;;;;6.53;5.93;;;;;;;19.47;59.20;96548.38;6164828;22;20166;-75
2022/08/13 01:59:34;;;;;;;7.27;6.53;;;;;;;20.24;59.22;96658.84;6159937;22;20231;-76
2022/08/13 02:02:24;;;;;;;6.73;6.03;;;;;;;19.96;59.28;96620.19;6138739;22;20229;-76
2022/08/13 02:05:12;;;;;;;7.50;6.33;;;;;;;20.30;59.49;96684.56;6164543;22;20229;-75
2022/08/13 02:08:00;;;;;;;8.33;6.20;;;;;;;20.49;59.72;96689.00;6138258;22;20189;-78
2022/08/13 02:10:38;;;;;;;6.77;5.90;;;;;;;20.73;59.52;96716.53;6137540;22;20163;-76
2022/08/13 02:13:13;;;;;;;6.93;6.27;;;;;;;19.64;59.31;96541.59;6135202;22;20173;-77
2022/08/13 02:15:46;;;;;;;8.13;6.43;;;;;;;19.88;59.26;96546.47;6160845;22;20202;-75
2022/08/13 02:18:20;;;;;;;8.03;6.83;;;;;;;20.63;59.43;96673.63;6136235;22;20249;-76
2022/08/13 02:20:54;;;;;;;9.60;7.00;;;;;;;20.31;58.96;96614.41;6135038;22;20166;-76
2022/08/13 02:23:27;;;;;;;6.90;6.00;;;;;;;20.03;60.54;96629.22;6136547;22;20163;-75
2022/08/13 02:26:17;;;;;;;9.00;6.60;;;;;;;19.66;62.01;96607.19;6138396;22;20189;-75
2022/08/13 02:28:46;;;;;;;7.57;5.90;;;;;;;20.14;62.42;96723.72;6160995;22;20167;-74
2022/08/13 02:31:18;;;;;;;6.60;6.00;;;;;;;19.38;63.23;96622.72;6134789;22;20231;-78
2022/08/13 02:33:53;;;;;;;7.00;6.30;;;;;;;19.70;64.05;96703.16;6137821;22;20166;-77
2022/08/13 02:36:22;;;;;;;8.57;6.50;;;;;;;19.19;64.44;96632.28;6134375;22;20219;-79
2022/08/13 02:39:04;;;;;;;6.40;5.80;;;;;;;18.68;64.84;96554.47;6160201;22;20248;-78
2022/08/13 02:41:40;;;;;;;6.67;5.90;;;;;;;18.98;64.66;96613.16;6136633;22;20203;-81
2022/08/13 02:44:21;;;;;;;7.17;5.67;;;;;;;18.96;65.33;96613.28;6161945;22;20174;-80
2022/08/13 02:47:01;;;;;;;6.57;5.60;;;;;;;19.64;65.10;96724.72;6168749;22;20253;-78
2022/08/13 02:49:28;;;;;;;6.90;6.20;;;;;;;19.17;65.23;96642.94;6159255;22;20245;-77
2022/08/13 02:52:11;;;;;;;7.30;6.27;;;;;;;19.20;64.38;96621.69;6164329;22;20185;-79
2022/08/13 02:54:43;;;;;;;23.47;7.73;;;;;;;19.47;64.24;96653.44;6135990;22;20170;-80
2022/08/13 02:57:22;;;;;;;7.70;6.23;;;;;;;19.53;63.80;96632.84;6139918;22;20166;-79
2022/08/13 02:59:50;;;;;;;8.23;6.40;;;;;;;20.05;63.17;96735.88;6160549;22;20170;-77
2022/08/13 03:02:43;;;;;;;10.53;6.93;;;;;;;18.79;63.69;96540.44;6162199;22;20228;-78
2022/08/13 03:05:18;;;;;;;12.60;7.27;;;;;;;19.84;64.77;96737.78;6288028;22;20163;-77
2022/08/13 03:07:48;;;;;;;10.00;8.03;;;;;;;18.75;64.70;96570.53;6133598;22;20166;-77
2022/08/13 03:10:23;;;;;;;9.60;7.97;;;;;;;19.21;65.07;96686.34;6161260;22;20162;-75
2022/08/13 03:13:21;;;;;;;10.27;8.70;;;;;;;19.60;64.89;96750.41;6161288;22;20163;-76
2022/08/13 03:15:55;;;;;;;11.50;9.60;;;;;;;18.81;64.79;96614.59;6135453;22;20201;-78
2022/08/13 03:18:30;;;;;;;11.97;10.57;;;;;;;19.48;65.33;96739.16;6136591;22;20166;-77
2022/08/13 03:21:19;;;;;;;12.37;11.07;;;;;;;18.56;65.02;96576.50;6157805;22;20193;-79
2022/08/13 03:24:13;;;;;;;11.60;10.10;;;;;;;19.02;63.90;96610.13;6165497;22;20162;-77
2022/08/13 03:26:52;;;;;;;14.27;10.90;;;;;;;20.11;62.75;96716.91;6159020;22;20224;-75
2022/08/13 03:29:23;;;;;;;11.83;10.63;;;;;;;20.18;62.00;96712.78;6160779;22;20694;-78
2022/08/13 03:32:11;;;;;;;14.27;10.57;;;;;;;19.69;61.25;96585.88;6140723;22;20200;-76
2022/08/13 03:34:40;;;;;;;12.30;11.00;;;;;;;20.73;60.57;96742.88;6160417;22;20230;-77
2022/08/13 03:37:10;;;;;;;12.10;10.90;;;;;;;19.96;60.74;96626.28;6160828;22;20230;-77
2022/08/13 03:39:38;;;;;;;12.40;10.30;;;;;;;19.57;61.10;96579.91;6159419;22;20214;-77
2022/08/13 03:42:09;;;;;;;12.17;10.97;;;;;;;19.53;61.13;96575.91;6161563;22;20198;-75
2022/08/13 03:44:40;;;;;;;11.80;10.57;;;;;;;19.98;61.54;96639.28;6135957;22;20163;-75
2022/08/13 03:47:10;;;;;;;11.23;10.13;;;;;;;20.42;60.38;96691.38;6265628;22;20162;-79
2022/08/13 03:50:05;;;;;;;12.33;10.27;;;;;;;20.88;60.11;96744.13;6139448;22;20203;-76
2022/08/13 03:52:35;;;;;;;11.57;9.60;;;;;;;20.38;60.59;96663.66;6136502;22;20237;-76
2022/08/13 03:55:15;;;;;;;15.90;10.37;;;;;;;19.60;61.00;96560.44;6136889;22;20167;-78
2022/08/13 03:57:44;;;;;;;11.83;10.63;;;;;;;19.72;60.81;96554.06;6160368;22;20167;-77
2022/08/13 04:00:34;;;;;;;14.93;8.93;;;;;;;20.79;59.71;96683.59;6140028;22;20208;-76
2022/08/13 04:03:17;;;;;;;12.97;9.40;;;;;;;21.23;58.40;96671.56;6134898;22;20198;-76
2022/08/13 04:05:54;;;;;;;12.20;10.03;;;;;;;21.68;58.00;96746.28;6137248;22;20163;-77
2022/08/13 04:08:28;;;;;;;14.47;9.70;;;;;;;20.73;58.08;96589.41;6136292;22;20163;-76
2022/08/13 04:10:57;;;;;;;10.43;8.67;;;;;;;20.99;57.83;96636.00;6136184;22;20164;-79
2022/08/13 04:13:27;;;;;;;12.33;8.20;;;;;;;21.05;58.48;96658.31;6135316;22;20210;-80
2022/08/13 04:16:20;;;;;;;8.73;7.83;;;;;;;21.13;58.78;96691.84;6139899;22;20219;-77
2022/08/13 04:19:01;;;;;;;11.80;7.27;;;;;;;20.74;58.86;96627.91;6138577;22;20411;-80
2022/08/13 04:21:33;;;;;;;10.87;7.53;;;;;;;21.30;59.12;96742.00;6136084;22;20161;-78
2022/08/13 04:24:04;;;;;;;13.93;7.03;;;;;;;20.43;58.33;96574.66;6161303;22;20161;-76
2022/08/13 04:26:38;;;;;;;12.27;7.33;;;;;;;20.57;58.57;96603.16;6161399;22;20168;-77
2022/08/13 04:29:11;;;;;;;10.10;7.30;;;;;;;20.85;58.89;96641.75;6137336;22;20470;-75
2022/08/13 04:31:45;;;;;;;11.83;7.67;;;;;;;21.15;58.37;96674.09;6161453;22;20235;-75
2022/08/13 04:34:26;;;;;;;8.07;7.03;;;;;;;21.66;58.27;96753.50;6136808;22;20160;-75
2022/08/13 04:37:09;;;;;;;16.20;7.33;;;;;;;20.85;57.82;96589.09;6138762;22;20398;-79
2022/08/13 04:39:52;;;;;;;8.93;7.23;;;;;;;21.36;57.15;96632.56;6138545;22;20199;-77
2022/08/13 04:42:43;;;;;;;10.43;7.57;;;;;;;21.99;56.97;96723.13;6163774;22;20202;-75
2022/08/13 04:45:17;;;;;;;9.80;7.73;;;;;;;21.60;57.78;96646.00;6163374;22;20177;-78
2022/08/13 04:47:49;;;;;;;8.77;7.03;;;;;;;22.22;57.33;96725.19;6137575;22;20166;-75
2022/08/13 04:50:17;;;;;;;10.00;7.80;;;;;;;21.60;57.20;96617.03;6135922;22;20324;-75
2022/08/13 04:52:46;;;;;;;9.40;8.00;;;;;;;21.60;57.09;96620.50;6160075;22;20262;-76
2022/08/13 04:55:16;;;;;;;8.13;7.33;;;;;;;22.18;56.46;96670.22;6160630;22;20165;-76
2022/08/13 04:57:45;;;;;;;9.60;7.73;;;;;;;22.17;56.71;96677.34;6135779;22;20324;-76
2022/08/13 05:00:32;;;;;;;11.43;8.43;;;;;;;22.23;57.35;96695.22;6137499;22;20622;-75
2022/08/13 05:03:14;;;;;;;8.10;7.30;;;;;;;22.60;57.21;96719.66;6160185;22;20194;-79
2022/08/13 05:05:47;;;;;;;9.80;6.77;;;;;;;22.53;56.86;96683.41;6161244;22;20169;-80
2022/08/13 05:08:16;;;;;;;12.17;7.63;;;;;;;22.12;57.38;96650.56;6160729;22;20185;-79
2022/08/13 05:10:49;;;;;;;10.03;7.53;;;;;;;22.00;56.80;96583.19;6161196;22;20162;-80
2022/08/13 05:13:32;;;;;;;9.47;7.43;;;;;;;22.10;57.63;96615.59;6161432;22;20162;-80
2022/08/13 05:16:11;;;;;;;10.50;7.73;;;;;;;22.32;57.30;96644.16;6162855;22;20204;-76
2022/08/13 05:18:45;;;;;;;9.37;7.77;;;;;;;22.08;57.23;96585.06;6135949;22;20236;-79
2022/08/13 05:21:14;;;;;;;8.97;8.03;;;;;;;22.21;56.53;96573.16;6160510;22;20166;-79
2022/08/13 05:23:53;;;;;;;10.90;7.87;;;;;;;22.50;56.08;96623.84;6160902;22;20199;-79
2022/08/13 05:26:40;;;;;;;11.60;7.93;;;;;;;22.82;55.57;96594.25;6140178;22;20158;-79
2022/08/13 05:29:28;;;;;;;9.97;8.20;;;;;;;22.58;54.88;96568.53;6139300;22;20416;-80
2022/08/13 05:31:57;;;;;;;11.00;8.93;;;;;;;23.55;55.20;96726.78;6136837;22;20230;-79
2022/08/13 05:34:27;;;;;;;9.93;8.13;;;;;;;22.72;54.58;96561.00;6159941;22;20174;-78
2022/08/13 05:37:00;;;;;;;9.33;8.27;;;;;;;22.84;54.37;96570.31;6135792;22;20168;-78
2022/08/13 05:39:48;;;;;;;12.37;8.83;;;;;;;23.95;53.59;96635.19;6140263;22;20163;-78
2022/08/13 05:42:19;;;;;;;9.43;7.83;;;;;;;24.54;51.21;96679.16;6137479;22;20197;-79
2022/08/13 05:44:56;;;;;;;11.23;7.97;;;;;;;25.03;51.47;96719.72;6139795;22;20534;-79
2022/08/13 05:47:28;;;;;;;9.53;7.73;;;;;;;24.54;50.58;96662.44;6136141;22;20165;-78
2022/08/13 05:50:08;;;;;;;10.23;7.80;;;;;;;24.74;50.95;96671.72;6162875;22;20387;-80
2022/08/13 05:52:39;;;;;;;10.87;7.63;;;;;;;24.45;50.48;96589.28;6137911;22;20157;-81
2022/08/13 05:55:15;;;;;;;9.37;7.63;;;;;;;24.79;49.73;96566.91;6140953;22;20166;-80
2022/08/13 05:58:04;;;;;;;12.70;9.00;;;;;;;24.98;49.45;96557.75;6159921;22;20189;-76
2022/08/13 06:03:39;;;;;;;11.50;8.40;;;;;;;25.76;48.61;96710.63;6163623;22;20439;-79
2022/08/13 06:06:28;;;;;;;15.07;9.90;;;;;;;25.66;49.01;96675.53;6169164;22;20166;-79
2022/08/13 06:09:04;;;;;;;8.67;7.53;;;;;;;25.48;48.93;96644.94;6167084;22;20237;-79
2022/08/13 06:11:43;;;;;;;10.73;8.87;;;;;;;25.66;48.95;96627.78;6139535;22;20222;-79
2022/08/13 06:14:34;;;;;;;13.53;9.67;;;;;;;25.43;48.58;96581.00;6139747;22;20460;-77
2022/08/13 06:17:06;;;;;;;10.40;9.30;;;;;;;25.29;48.55;96558.63;6160633;22;20194;-78
2022/08/13 06:19:43;;;;;;;13.60;9.13;;;;;;;25.36;48.86;96612.63;6138007;22;20158;-77
2022/08/13 06:22:19;;;;;;;16.67;10.73;;;;;;;25.54;47.92;96626.50;6163606;22;20191;-77
2022/08/13 06:24:47;;;;;;;16.17;12.27;;;;;;;26.13;48.32;96675.47;6135494;22;20229;-77
2022/08/13 06:27:22;;;;;;;18.30;10.90;;;;;;;26.08;47.82;96679.66;6161211;22;20342;-80
2022/08/13 06:30:14;;;;;;;13.77;9.73;;;;;;;26.28;48.08;96686.19;6164194;22;20386;-77
2022/08/13 06:33:03;;;;;;;14.20;9.93;;;;;;;25.97;48.61;96672.88;6140821;22;20165;-78
2022/08/13 06:35:56;;;;;;;11.20;8.87;;;;;;;25.36;48.85;96550.81;6140493;22;20183;-80
2022/08/13 06:38:33;;;;;;;15.73;11.03;;;;;;;25.88;47.78;96601.47;6160096;22;20509;-77
2022/08/13 06:41:06;;;;;;;11.73;10.20;;;;;;;26.29;47.82;96638.22;6137271;22;20216;-77
2022/08/13 06:43:41;;;;;;;11.33;8.80;;;;;;;26.62;46.33;96636.16;6135788;22;20427;-79
2022/08/13 06:46:22;;;;;;;11.37;9.03;;;;;;;26.65;46.39;96603.09;6139516;22;20166;-79
2022/08/13 06:48:58;;;;;;;11.20;9.37;;;;;;;27.53;45.52;96686.47;6162983;22;20172;-79
2022/08/13 06:51:32;;;;;;;12.87;9.03;;;;;;;27.65;45.09;96693.00;6138047;22;20163;-79
2022/08/13 06:54:08;;;;;;;11.17;8.57;;;;;;;26.86;44.63;96545.59;6138845;22;20166;-77
2022/08/13 06:57:01;;;;;;;11.40;9.47;;;;;;;26.76;44.36;96522.94;6175848;22;20163;-77
2022/08/13 06:59:48;;;;;;;11.03;8.10;;;;;;;27.07;44.84;96622.78;6153606;22;20202;-83
2022/08/13 07:02:42;;;;;;;13.43;9.53;;;;;;;27.20;44.91;96632.78;6150023;22;20211;-83
2022/08/13 07:05:13;;;;;;;12.27;8.87;;;;;;;27.12;45.40;96624.91;6170491;22;20163;-79
2022/08/13 07:07:48;;;;;;;12.87;9.23;;;;;;;27.50;45.26;96678.84;6138471;22;20487;-77
2022/08/13 07:10:16;;;;;;;14.03;10.53;;;;;;;27.05;45.84;96623.97;6141596;22;20208;-79
2022/08/13 07:12:43;;;;;;;11.73;9.77;;;;;;;27.12;46.19;96609.75;6139216;22;20244;-78
2022/08/13 07:15:14;;;;;;;18.10;10.70;;;;;;;26.79;45.36;96543.84;6164957;22;20159;-77
2022/08/13 07:18:05;;;;;;;10.97;8.97;;;;;;;27.52;45.23;96620.97;6160234;22;20158;-79
2022/08/13 07:20:35;;;;;;;16.17;10.10;;;;;;;27.20;45.29;96596.38;6163222;22;20185;-77
2022/08/13 07:23:05;;;;;;;14.07;10.47;;;;;;;27.26;45.17;96582.38;6135501;22;20194;-76
2022/08/13 07:25:55;;;;;;;14.83;9.87;;;;;;;27.61;46.07;96639.31;6140312;22;20167;-77
2022/08/13 07:28:31;;;;;;;11.73;9.77;;;;;;;28.25;44.19;96668.78;6162219;22;20167;-77
2022/08/13 07:31:29;;;;;;;11.77;9.40;;;;;;;28.04;44.57;96651.75;6140299;22;20351;-76
2022/08/13 07:34:17;;;;;;;18.27;10.63;;;;;;;28.39;44.09;96674.06;6163193;22;20205;-77
2022/08/13 07:36:56;;;;;;;12.50;8.93;;;;;;;27.97;43.87;96588.78;6139424;22;20174;-77
2022/08/13 07:39:26;;;;;;;15.43;9.70;;;;;;;27.84;43.30;96509.56;6161774;22;20197;-77
2022/08/13 07:41:55;;;;;;;13.90;10.37;;;;;;;28.73;43.44;96649.38;6163844;22;20177;-80
2022/08/13 07:44:31;;;;;;;14.07;10.27;;;;;;;28.41;43.91;96589.44;6162912;22;20194;-77
2022/08/13 07:47:20;;;;;;;13.97;10.50;;;;;;;28.75;43.53;96612.69;6167320;22;20158;-77
2022/08/13 07:49:54;;;;;;;12.20;10.73;;;;;;;29.19;42.92;96657.78;6136334;22;20234;-77
2022/08/13 07:52:27;;;;;;;14.33;10.47;;;;;;;29.09;41.67;96619.94;6138794;22;20162;-77
2022/08/13 07:54:55;;;;;;;14.10;10.50;;;;;;;29.00;41.05;96602.44;6139319;22;20484;-77
2022/08/13 07:57:25;;;;;;;11.97;9.17;;;;;;;28.96;41.61;96620.66;6138482;22;20298;-77
2022/08/13 08:00:18;;;;;;;12.03;9.77;;;;;;;28.67;42.06;96587.00;6138972;22;20234;-78
2022/08/13 08:02:56;;;;;;;12.93;10.70;;;;;;;27.86;43.62;96522.72;6162651;22;20203;-80
2022/08/13 08:05:27;;;;;;;13.83;10.50;;;;;;;28.15;43.27;96550.03;6161301;22;20495;-76
2022/08/13 08:08:07;;;;;;;18.43;11.47;;;;;;;28.43;42.95;96595.38;6162948;22;20382;-78
2022/08/13 08:10:39;;;;;;;14.80;9.80;;;;;;;28.45;43.03;96581.88;6144682;22;20163;-78
2022/08/13 08:13:10;;;;;;;16.17;10.67;;;;;;;27.85;42.52;96467.81;6166252;22;20167;-79
2022/08/13 08:15:44;;;;;;;14.00;11.20;;;;;;;28.21;42.13;96492.53;6144874;22;20166;-80
2022/08/13 08:18:33;;;;;;;13.23;10.83;;;;;;;29.08;41.82;96626.28;6173100;22;20166;-78
2022/08/13 08:21:23;;;;;;;13.60;10.30;;;;;;;28.67;41.16;96560.34;6150782;22;20159;-78
2022/08/13 08:24:13;;;;;;;12.37;10.07;;;;;;;28.93;41.64;96563.19;6168690;22;20197;-77
2022/08/13 08:26:58;;;;;;;12.53;9.90;;;;;;;28.98;40.22;96552.78;6147100;22;20368;-81
2022/08/13 08:29:26;;;;;;;15.73;10.83;;;;;;;29.31;39.28;96541.47;6172051;22;20182;-80
2022/08/13 08:32:07;;;;;;;14.40;10.23;;;;;;;29.39;38.97;96501.28;6173581;22;20192;-78
2022/08/13 08:34:41;;;;;;;11.37;8.63;;;;;;;29.89;38.02;96586.31;6149471;22;20192;-80
2022/08/13 08:42:35;;;;;;;12.77;9.27;;;;;;;29.16;37.94;96533.59;6147084;22;20266;-82
2022/08/13 08:43:16;;;;;;;13.97;8.90;;;;;;;28.97;37.76;96539.66;6269580;22;20194;-77
2022/08/13 08:45:52;;;;;;;12.83;8.57;;;;;;;28.88;37.34;96514.97;6175674;22;20162;-76
2022/08/13 08:48:40;;;;;;;11.80;8.20;;;;;;;29.19;37.34;96516.38;6154600;22;20197;-80
2022/08/13 08:51:09;;;;;;;10.00;8.17;;;;;;;29.32;36.31;96444.41;6144561;22;20216;-78
2022/08/13 08:53:48;;;;;;;12.90;9.33;;;;;;;29.80;35.14;96502.03;6174178;22;20180;-78
2022/08/13 08:56:37;;;;;;;11.87;8.23;;;;;;;30.62;34.90;96597.97;6151869;22;20160;-81
2022/08/13 08:59:20;;;;;;;16.03;11.07;;;;;;;30.05;35.67;96551.19;6151602;22;20163;-81
2022/08/13 09:01:55;;;;;;;21.43;15.07;;;;;;;29.68;35.90;96447.56;6147625;22;20159;-81
2022/08/13 09:04:29;;;;;;;10.40;8.13;;;;;;;30.18;35.58;96497.78;6171448;22;20284;-78
2022/08/13 09:07:18;;;;;;;10.90;8.47;;;;;;;30.33;35.36;96477.06;6152481;22;20198;-79
2022/08/13 09:09:54;;;;;;;9.10;7.10;;;;;;;29.58;34.39;96444.47;6146245;22;20174;-82
2022/08/13 09:12:25;;;;;;;8.23;6.47;;;;;;;29.49;35.06;96485.75;6168247;22;20162;-81
2022/08/13 09:14:59;;;;;;;9.47;7.63;;;;;;;29.40;35.82;96433.56;6164706;22;20192;-81
2022/08/13 09:17:30;;;;;;;10.40;7.73;;;;;;;29.61;36.04;96511.63;6163130;22;20503;-78
2022/08/13 09:20:14;;;;;;;8.97;7.57;;;;;;;29.30;36.57;96492.66;6143279;22;20461;-81
2022/08/13 09:22:46;;;;;;;8.97;7.57;;;;;;;29.40;36.32;96479.75;6140818;22;20197;-78
2022/08/13 09:25:27;;;;;;;12.53;8.73;;;;;;;30.08;35.66;96545.47;6119102;22;20169;-81
2022/08/13 09:27:55;;;;;;;11.10;8.73;;;;;;;30.25;35.79;96551.25;6161918;22;20189;-79
2022/08/13 09:30:45;;;;;;;8.53;7.43;;;;;;;29.94;34.83;96457.50;6142395;22;20444;-77
2022/08/13 09:33:17;;;;;;;13.87;8.30;;;;;;;30.18;34.92;96452.38;6165524;22;20185;-80
2022/08/13 09:36:09;;;;;;;8.90;7.73;;;;;;;30.47;34.16;96478.72;6144054;22;20170;-81
2022/08/13 09:38:45;;;;;;;12.00;8.10;;;;;;;30.49;35.07;96498.03;6164774;22;20176;-81
2022/08/13 09:41:28;;;;;;;8.97;7.80;;;;;;;29.98;34.92;96397.31;6140061;22;20167;-78
2022/08/13 09:44:01;;;;;;;8.10;7.30;;;;;;;30.90;34.58;96529.06;6144159;22;20190;-82
2022/08/13 09:46:36;;;;;;;8.70;7.67;;;;;;;30.75;33.38;96477.63;6121961;22;20166;-82
2022/08/13 09:49:08;;;;;;;8.60;6.20;;;;;;;30.42;31.34;96507.06;6163710;22;20169;-80
2022/08/13 09:51:44;;;;;;;8.80;6.10;;;;;;;29.66;32.34;96436.28;6164002;22;20190;-78
2022/08/13 09:54:33;;;;;;;7.03;6.33;;;;;;;29.23;33.88;96457.13;6182420;22;20159;-81
2022/08/13 09:57:02;;;;;;;7.27;6.13;;;;;;;29.73;33.69;96522.59;6138839;22;20346;-77
2022/08/13 09:59:32;;;;;;;11.07;7.07;;;;;;;30.39;31.57;96529.69;6143111;22;20169;-78
2022/08/13 10:02:09;;;;;;;10.87;7.10;;;;;;;30.30;33.35;96466.78;6191856;22;20161;-79
2022/08/13 10:04:43;;;;;;;8.00;7.00;;;;;;;30.26;32.79;96462.84;6162343;22;20221;-79
2022/08/13 10:07:14;;;;;;;8.40;6.97;;;;;;;30.35;32.62;96450.97;6165287;22;20249;-77
2022/08/13 10:09:50;;;;;;;9.33;6.93;;;;;;;30.47;33.31;96427.91;6166390;22;20189;-77
2022/08/13 10:12:42;;;;;;;8.00;6.73;;;;;;;29.91;32.89;96391.97;6171561;22;20198;-77
2022/08/13 10:15:15;;;;;;;12.03;7.13;;;;;;;30.52;32.90;96489.59;6165176;22;20162;-80
2022/08/13 10:17:57;;;;;;;7.40;6.60;;;;;;;29.81;32.62;96348.84;6145272;22;20166;-81
2022/08/13 10:20:36;;;;;;;9.03;7.07;;;;;;;29.95;32.60;96421.75;6166393;22;20305;-78
2022/08/13 10:23:05;;;;;;;11.13;7.00;;;;;;;30.28;32.83;96463.47;6140562;22;20205;-77
2022/08/13 10:25:37;;;;;;;12.90;7.20;;;;;;;30.62;33.21;96491.03;6139552;22;20162;-78
2022/08/13 10:28:25;;;;;;;9.00;6.87;;;;;;;29.89;33.54;96460.78;6141701;22;20223;-80
2022/08/13 10:31:00;;;;;;;8.03;6.97;;;;;;;29.17;33.96;96422.41;6141296;22;20413;-78
2022/08/13 10:33:50;;;;;;;8.67;6.70;;;;;;;28.87;34.41;96358.69;6166114;22;20181;-79
2022/08/13 10:36:22;;;;;;;7.27;6.57;;;;;;;29.01;33.91;96412.06;6144628;22;20201;-78
2022/08/13 10:39:03;;;;;;;9.50;7.70;;;;;;;29.51;33.45;96441.00;6141392;22;20173;-79
2022/08/13 10:41:36;;;;;;;6.67;6.00;;;;;;;29.30;33.38;96401.94;6170197;22;20208;-80
2022/08/13 10:44:23;;;;;;;9.20;7.10;;;;;;;29.45;33.09;96381.22;6151121;22;20202;-80
2022/08/13 10:46:54;;;;;;;8.37;6.90;;;;;;;29.71;33.96;96418.66;6170085;22;20215;-78
2022/08/13 10:49:22;;;;;;;8.03;7.23;;;;;;;29.91;34.30;96415.16;6168829;22;20188;-79
2022/08/13 10:51:49;;;;;;;9.87;7.20;;;;;;;29.63;34.90;96439.38;6165384;22;20163;-81
2022/08/13 10:54:34;;;;;;;7.13;6.43;;;;;;;29.14;34.54;96337.44;6144676;22;20163;-81
2022/08/13 10:57:05;;;;;;;10.33;7.77;;;;;;;30.07;34.17;96426.25;6140696;22;20173;-78
2022/08/13 10:59:41;;;;;;;10.97;7.53;;;;;;;30.26;33.37;96438.81;6162655;22;20953;-77
2022/08/13 11:02:10;;;;;;;9.03;7.30;;;;;;;30.54;33.28;96479.50;6137749;22;20167;-79
2022/08/13 11:04:47;;;;;;;8.37;6.60;;;;;;;29.80;32.73;96333.81;6142773;22;20196;-77
2022/08/13 11:07:21;;;;;;;8.50;7.10;;;;;;;30.17;32.18;96349.19;6165172;22;20170;-79
2022/08/13 11:09:49;;;;;;;8.17;6.87;;;;;;;30.47;33.00;96443.13;6139425;22;20162;-77
2022/08/13 11:12:19;;;;;;;8.07;6.60;;;;;;;30.49;32.83;96411.66;6189559;22;20246;-79
2022/08/13 11:14:53;;;;;;;8.83;7.00;;;;;;;30.11;32.63;96323.31;6166790;22;20171;-79
2022/08/13 11:17:21;;;;;;;8.27;6.83;;;;;;;30.19;32.67;96370.38;6142513;22;20254;-80
2022/08/13 11:20:13;;;;;;;8.00;6.63;;;;;;;30.22;33.01;96373.44;6168742;22;20449;-78
2022/08/13 11:22:46;;;;;;;8.40;6.30;;;;;;;30.64;32.32;96422.13;6167749;22;20162;-79
2022/08/13 11:25:17;;;;;;;8.07;6.60;;;;;;;30.54;31.21;96345.03;6140050;22;20197;-79
2022/08/13 11:28:12;;;;;;;6.73;6.07;;;;;;;29.89;31.44;96286.38;6170240;22;20163;-77
2022/08/13 11:30:51;;;;;;;7.27;6.57;;;;;;;30.81;31.69;96381.31;6140159;22;20162;-81
2022/08/13 11:33:23;;;;;;;10.27;6.90;;;;;;;31.63;31.41;96450.97;6165733;22;20163;-78
2022/08/13 11:36:10;;;;;;;9.27;7.60;;;;;;;31.84;31.45;96436.41;6142256;22;20166;-79
2022/08/13 11:38:39;;;;;;;12.10;7.53;;;;;;;31.63;31.36;96385.88;6165062;22;20158;-78
2022/08/13 11:41:07;;;;;;;6.97;6.27;;;;;;;30.91;30.42;96335.44;6139871;22;20179;-81
2022/08/13 11:43:47;;;;;;;6.83;6.13;;;;;;;31.31;30.49;96406.44;6139952;22;20190;-77
2022/08/13 11:46:25;;;;;;;8.00;6.80;;;;;;;30.65;31.32;96394.34;6141959;22;20453;-76
2022/08/13 11:48:52;;;;;;;6.97;6.03;;;;;;;30.57;31.99;96415.94;6141270;22;20171;-78
2022/08/13 11:51:40;;;;;;;6.83;5.97;;;;;;;30.16;32.14;96350.25;6195811;22;20188;-79
2022/08/13 11:54:23;;;;;;;7.97;6.03;;;;;;;29.59;32.00;96267.31;6171539;22;20163;-77
2022/08/13 11:57:05;;;;;;;8.93;6.40;;;;;;;30.24;31.71;96383.91;6144541;22;20215;-79
2022/08/13 11:59:39;;;;;;;9.00;6.23;;;;;;;29.53;32.16;96278.81;6141328;22;20166;-78
2022/08/13 12:02:16;;;;;;;7.23;6.50;;;;;;;30.53;31.88;96428.94;6171245;22;20162;-77
2022/08/13 12:04:52;;;;;;;6.40;5.70;;;;;;;30.41;31.69;96374.47;6191890;22;20274;-77
2022/08/13 12:07:24;;;;;;;7.67;6.47;;;;;;;29.94;31.95;96276.72;6170720;22;20166;-79
2022/08/13 12:09:57;;;;;;;8.90;6.70;;;;;;;30.44;31.20;96321.41;6170592;22;20169;-78
2022/08/13 12:12:26;;;;;;;10.67;7.07;;;;;;;30.50;32.15;96327.78;6170444;22;20162;-77
2022/08/13 12:14:59;;;;;;;6.20;5.60;;;;;;;30.76;31.14;96388.34;6141936;22;20158;-80
2022/08/13 12:17:30;;;;;;;9.43;5.73;;;;;;;30.75;30.60;96398.22;6140553;22;20436;-75
2022/08/13 12:20:21;;;;;;;6.20;5.60;;;;;;;30.32;31.37;96418.47;6141157;22;20175;-77
2022/08/13 12:22:57;;;;;;;7.60;6.80;;;;;;;29.46;31.09;96257.44;6162556;22;20203;-76
2022/08/13 12:25:27;;;;;;;7.87;6.40;;;;;;;29.93;31.71;96400.59;6135962;22;20191;-74
2022/08/13 12:28:20;;;;;;;8.00;6.20;;;;;;;30.06;32.03;96391.75;6159765;22;20462;-75